Ash Ridge, Ohio
Current Conditions -  °F | °C
As of 3:35 PM on Tuesday 21 Oct 2014 (Local Time) from KFGX Reporting Station
Overcast Overcast  
Wind Chill: 52°   Ceiling: 4400
Heat Index: 52°   Visibility: 10mi
Dew Point: 39°   Wind: 8mph
Humidity: 61%   Direction: 340°NNW
Pressure: 30.05"   Gusts: NA
Location:  38.8698°N, 83.9081°W
Report Text: KFGX 211935Z AUTO 34007KT 10SM BKN044 OVC050 11/04 A3005 RMK AO2 T01120039
Loading
Personal Weather Stations






























Interactive Weather Map
Tropical Storm Tracking
New forecast layout! Learn more

10-Day Weather Forecast

Advertisements
Track Severe Weather on mobile